sensor_id;sensor_type;location;lat;lon;timestamp;P1;durP1;ratioP1;P2;durP2;ratioP2
29958;SDS011;16815;51.100;6.516;2023-07-13T03:58:58;9.60;;;2.37;;
29958;SDS011;16815;51.100;6.516;2023-07-13T04:01:27;7.10;;;2.20;;
29958;SDS011;16815;51.100;6.516;2023-07-13T04:18:18;25.87;;;7.50;;
29958;SDS011;16815;51.100;6.516;2023-07-13T04:20:45;15.77;;;3.63;;
29958;SDS011;16815;51.100;6.516;2023-07-13T05:36:46;8.67;;;2.07;;
29958;SDS011;16815;51.100;6.516;2023-07-13T05:39:12;8.23;;;2.00;;
29958;SDS011;16815;51.100;6.516;2023-07-13T05:41:38;8.30;;;2.47;;
29958;SDS011;16815;51.100;6.516;2023-07-13T05:47:32;3.87;;;1.97;;
29958;SDS011;16815;51.100;6.516;2023-07-13T05:50:07;6.47;;;1.90;;
29958;SDS011;16815;51.100;6.516;2023-07-13T05:52:50;5.33;;;2.10;;
29958;SDS011;16815;51.100;6.516;2023-07-13T05:55:30;6.27;;;2.27;;
29958;SDS011;16815;51.100;6.516;2023-07-13T05:58:02;9.77;;;2.57;;
29958;SDS011;16815;51.100;6.516;2023-07-13T06:00:28;5.87;;;2.10;;
29958;SDS011;16815;51.100;6.516;2023-07-13T06:02:55;5.77;;;1.97;;
29958;SDS011;16815;51.100;6.516;2023-07-13T06:05:23;5.43;;;1.90;;
29958;SDS011;16815;51.100;6.516;2023-07-13T06:07:49;6.00;;;2.10;;
29958;SDS011;16815;51.100;6.516;2023-07-13T06:10:15;4.77;;;1.77;;
29958;SDS011;16815;51.100;6.516;2023-07-13T06:12:41;3.40;;;1.80;;
29958;SDS011;16815;51.100;6.516;2023-07-13T06:15:07;8.30;;;2.50;;
29958;SDS011;16815;51.100;6.516;2023-07-13T06:17:33;6.43;;;2.07;;
29958;SDS011;16815;51.100;6.516;2023-07-13T06:19:59;10.30;;;2.47;;
29958;SDS011;16815;51.100;6.516;2023-07-13T06:22:25;9.13;;;2.63;;
29958;SDS011;16815;51.100;6.516;2023-07-13T06:24:51;5.97;;;2.13;;
29958;SDS011;16815;51.100;6.516;2023-07-13T06:27:17;10.07;;;3.03;;
29958;SDS011;16815;51.100;6.516;2023-07-13T06:29:43;9.53;;;2.80;;
29958;SDS011;16815;51.100;6.516;2023-07-13T06:35:37;14.73;;;2.70;;
29958;SDS011;16815;51.100;6.516;2023-07-13T06:38:28;8.30;;;2.60;;
29958;SDS011;16815;51.100;6.516;2023-07-13T07:34:36;6.53;;;2.13;;
29958;SDS011;16815;51.100;6.516;2023-07-13T07:38:08;9.37;;;2.53;;
29958;SDS011;16815;51.100;6.516;2023-07-13T07:43:20;9.77;;;3.00;;
29958;SDS011;16815;51.100;6.516;2023-07-13T08:10:06;11.30;;;2.85;;
29958;SDS011;16815;51.100;6.516;2023-07-13T08:12:39;5.32;;;2.55;;
29958;SDS011;16815;51.100;6.516;2023-07-13T08:15:11;9.15;;;2.65;;
29958;SDS011;16815;51.100;6.516;2023-07-13T08:17:37;8.63;;;2.65;;
29958;SDS011;16815;51.100;6.516;2023-07-13T08:20:04;16.52;;;2.70;;
29958;SDS011;16815;51.100;6.516;2023-07-13T08:22:31;9.15;;;3.05;;
29958;SDS011;16815;51.100;6.516;2023-07-13T08:24:56;10.02;;;2.45;;
29958;SDS011;16815;51.100;6.516;2023-07-13T08:27:23;7.80;;;2.55;;
29958;SDS011;16815;51.100;6.516;2023-07-13T08:29:50;6.97;;;2.65;;
29958;SDS011;16815;51.100;6.516;2023-07-13T08:32:18;11.32;;;2.53;;
29958;SDS011;16815;51.100;6.516;2023-07-13T08:34:45;7.80;;;2.55;;
29958;SDS011;16815;51.100;6.516;2023-07-13T08:37:11;10.68;;;2.80;;
29958;SDS011;16815;51.100;6.516;2023-07-13T08:39:37;9.90;;;2.47;;
29958;SDS011;16815;51.100;6.516;2023-07-13T08:42:06;21.83;;;3.03;;
29958;SDS011;16815;51.100;6.516;2023-07-13T08:46:58;8.10;;;2.70;;
29958;SDS011;16815;51.100;6.516;2023-07-13T08:49:24;8.88;;;2.50;;
29958;SDS011;16815;51.100;6.516;2023-07-13T08:51:53;7.88;;;1.70;;
29958;SDS011;16815;51.100;6.516;2023-07-13T08:54:29;5.18;;;2.40;;
29958;SDS011;16815;51.100;6.516;2023-07-13T08:56:56;7.25;;;2.20;;
29958;SDS011;16815;51.100;6.516;2023-07-13T08:59:24;8.07;;;2.22;;
29958;SDS011;16815;51.100;6.516;2023-07-13T09:04:22;10.32;;;2.08;;
29958;SDS011;16815;51.100;6.516;2023-07-13T09:11:49;6.78;;;2.35;;
29958;SDS011;16815;51.100;6.516;2023-07-13T09:14:26;10.32;;;2.33;;
29958;SDS011;16815;51.100;6.516;2023-07-13T09:16:58;9.38;;;2.30;;
29958;SDS011;16815;51.100;6.516;2023-07-13T09:19:26;12.40;;;2.60;;
29958;SDS011;16815;51.100;6.516;2023-07-13T09:21:53;5.70;;;2.00;;
29958;SDS011;16815;51.100;6.516;2023-07-13T09:27:09;5.90;;;2.10;;
29958;SDS011;16815;51.100;6.516;2023-07-13T09:29:37;4.40;;;1.85;;
29958;SDS011;16815;51.100;6.516;2023-07-13T09:32:09;7.80;;;2.20;;
29958;SDS011;16815;51.100;6.516;2023-07-13T09:34:36;4.80;;;1.80;;
29958;SDS011;16815;51.100;6.516;2023-07-13T09:37:02;4.85;;;1.88;;
29958;SDS011;16815;51.100;6.516;2023-07-13T09:39:30;7.57;;;2.35;;
29958;SDS011;16815;51.100;6.516;2023-07-13T09:44:28;5.85;;;2.00;;
29958;SDS011;16815;51.100;6.516;2023-07-13T09:46:56;7.57;;;1.80;;
29958;SDS011;16815;51.100;6.516;2023-07-13T09:49:29;7.88;;;1.92;;
29958;SDS011;16815;51.100;6.516;2023-07-13T09:51:59;4.28;;;1.80;;
29958;SDS011;16815;51.100;6.516;2023-07-13T09:54:26;6.53;;;2.15;;
29958;SDS011;16815;51.100;6.516;2023-07-13T09:56:55;6.03;;;2.20;;
29958;SDS011;16815;51.100;6.516;2023-07-13T09:59:23;6.78;;;2.20;;
29958;SDS011;16815;51.100;6.516;2023-07-13T10:02:13;6.45;;;1.80;;
29958;SDS011;16815;51.100;6.516;2023-07-13T10:05:00;6.72;;;1.83;;
29958;SDS011;16815;51.100;6.516;2023-07-13T10:07:28;5.75;;;2.15;;
29958;SDS011;16815;51.100;6.516;2023-07-13T10:09:58;8.25;;;2.33;;
29958;SDS011;16815;51.100;6.516;2023-07-13T10:12:36;8.15;;;2.10;;
29958;SDS011;16815;51.100;6.516;2023-07-13T10:15:07;6.68;;;2.33;;
29958;SDS011;16815;51.100;6.516;2023-07-13T10:17:39;4.13;;;2.17;;
29958;SDS011;16815;51.100;6.516;2023-07-13T10:20:05;4.80;;;1.88;;
29958;SDS011;16815;51.100;6.516;2023-07-13T10:25:08;3.55;;;1.73;;
29958;SDS011;16815;51.100;6.516;2023-07-13T10:27:42;5.15;;;1.73;;
29958;SDS011;16815;51.100;6.516;2023-07-13T10:30:13;6.72;;;2.20;;
29958;SDS011;16815;51.100;6.516;2023-07-13T10:32:41;6.75;;;1.90;;
29958;SDS011;16815;51.100;6.516;2023-07-13T10:35:14;3.90;;;1.70;;
29958;SDS011;16815;51.100;6.516;2023-07-13T10:37:46;7.50;;;1.80;;
29958;SDS011;16815;51.100;6.516;2023-07-13T10:40:16;5.47;;;1.60;;
29958;SDS011;16815;51.100;6.516;2023-07-13T10:42:46;7.53;;;1.90;;
29958;SDS011;16815;51.100;6.516;2023-07-13T10:45:18;8.82;;;2.20;;
29958;SDS011;16815;51.100;6.516;2023-07-13T10:47:44;6.13;;;1.75;;
29958;SDS011;16815;51.100;6.516;2023-07-13T10:50:18;7.05;;;2.08;;
29958;SDS011;16815;51.100;6.516;2023-07-13T10:52:52;6.35;;;1.75;;
29958;SDS011;16815;51.100;6.516;2023-07-13T10:55:30;4.15;;;1.58;;
29958;SDS011;16815;51.100;6.516;2023-07-13T10:58:00;6.45;;;1.83;;
29958;SDS011;16815;51.100;6.516;2023-07-13T11:00:32;3.47;;;1.88;;
29958;SDS011;16815;51.100;6.516;2023-07-13T11:03:01;4.68;;;1.80;;
29958;SDS011;16815;51.100;6.516;2023-07-13T11:05:29;10.75;;;2.35;;
29958;SDS011;16815;51.100;6.516;2023-07-13T11:08:12;7.97;;;2.30;;
29958;SDS011;16815;51.100;6.516;2023-07-13T11:10:52;7.70;;;2.33;;
29958;SDS011;16815;51.100;6.516;2023-07-13T11:19:18;6.45;;;2.35;;
29958;SDS011;16815;51.100;6.516;2023-07-13T11:30:25;6.00;;;1.67;;
29958;SDS011;16815;51.100;6.516;2023-07-13T11:35:41;8.15;;;1.40;;
29958;SDS011;16815;51.100;6.516;2023-07-13T11:38:16;4.43;;;1.80;;
29958;SDS011;16815;51.100;6.516;2023-07-13T11:40:43;4.40;;;1.80;;
29958;SDS011;16815;51.100;6.516;2023-07-13T11:43:11;6.90;;;1.88;;
29958;SDS011;16815;51.100;6.516;2023-07-13T11:45:38;3.72;;;1.70;;
29958;SDS011;16815;51.100;6.516;2023-07-13T11:48:04;4.13;;;1.27;;
29958;SDS011;16815;51.100;6.516;2023-07-13T11:50:30;7.30;;;1.60;;
29958;SDS011;16815;51.100;6.516;2023-07-13T11:53:08;7.07;;;1.73;;
29958;SDS011;16815;51.100;6.516;2023-07-13T11:56:01;4.85;;;1.73;;
29958;SDS011;16815;51.100;6.516;2023-07-13T12:02:45;8.52;;;1.90;;
29958;SDS011;16815;51.100;6.516;2023-07-13T12:04:42;5.00;;;1.85;;
29958;SDS011;16815;51.100;6.516;2023-07-13T12:07:14;2.78;;;1.50;;
29958;SDS011;16815;51.100;6.516;2023-07-13T12:09:40;7.57;;;1.95;;
29958;SDS011;16815;51.100;6.516;2023-07-13T12:12:13;3.67;;;1.58;;
29958;SDS011;16815;51.100;6.516;2023-07-13T12:14:39;2.17;;;1.40;;
29958;SDS011;16815;51.100;6.516;2023-07-13T12:17:15;4.03;;;1.85;;
29958;SDS011;16815;51.100;6.516;2023-07-13T12:19:41;9.65;;;2.25;;
29958;SDS011;16815;51.100;6.516;2023-07-13T12:22:08;8.27;;;1.90;;
29958;SDS011;16815;51.100;6.516;2023-07-13T12:24:34;4.70;;;1.88;;
29958;SDS011;16815;51.100;6.516;2023-07-13T12:27:02;8.02;;;1.83;;
29958;SDS011;16815;51.100;6.516;2023-07-13T12:44:12;3.88;;;1.75;;
29958;SDS011;16815;51.100;6.516;2023-07-13T13:18:20;4.38;;;1.40;;
29958;SDS011;16815;51.100;6.516;2023-07-13T13:20:46;7.50;;;1.95;;
29958;SDS011;16815;51.100;6.516;2023-07-13T13:23:13;5.35;;;1.40;;
29958;SDS011;16815;51.100;6.516;2023-07-13T13:25:42;4.38;;;1.58;;
29958;SDS011;16815;51.100;6.516;2023-07-13T13:28:15;5.93;;;1.42;;
29958;SDS011;16815;51.100;6.516;2023-07-13T13:33:17;5.63;;;1.60;;
29958;SDS011;16815;51.100;6.516;2023-07-13T13:35:44;3.58;;;1.25;;
29958;SDS011;16815;51.100;6.516;2023-07-13T13:38:10;4.72;;;1.30;;
29958;SDS011;16815;51.100;6.516;2023-07-13T13:40:37;8.45;;;2.38;;
29958;SDS011;16815;51.100;6.516;2023-07-13T13:43:07;6.53;;;1.75;;
29958;SDS011;16815;51.100;6.516;2023-07-13T13:45:34;3.83;;;1.40;;
29958;SDS011;16815;51.100;6.516;2023-07-13T13:48:00;4.50;;;1.80;;
29958;SDS011;16815;51.100;6.516;2023-07-13T13:50:27;3.35;;;1.40;;
29958;SDS011;16815;51.100;6.516;2023-07-13T13:52:53;5.35;;;1.52;;
29958;SDS011;16815;51.100;6.516;2023-07-13T13:55:20;4.43;;;1.48;;
29958;SDS011;16815;51.100;6.516;2023-07-13T13:57:49;4.63;;;1.60;;
29958;SDS011;16815;51.100;6.516;2023-07-13T14:00:15;2.63;;;1.50;;
29958;SDS011;16815;51.100;6.516;2023-07-13T14:02:43;3.92;;;1.50;;
29958;SDS011;16815;51.100;6.516;2023-07-13T14:05:13;4.32;;;1.60;;
29958;SDS011;16815;51.100;6.516;2023-07-13T14:07:39;6.68;;;1.60;;
29958;SDS011;16815;51.100;6.516;2023-07-13T14:10:10;4.47;;;1.40;;
29958;SDS011;16815;51.100;6.516;2023-07-13T14:12:36;3.58;;;1.83;;
29958;SDS011;16815;51.100;6.516;2023-07-13T14:15:03;5.68;;;1.48;;
29958;SDS011;16815;51.100;6.516;2023-07-13T14:17:29;3.80;;;1.42;;
29958;SDS011;16815;51.100;6.516;2023-07-13T14:19:55;3.85;;;1.50;;
29958;SDS011;16815;51.100;6.516;2023-07-13T14:22:25;5.47;;;1.60;;
29958;SDS011;16815;51.100;6.516;2023-07-13T14:24:51;2.10;;;1.38;;
29958;SDS011;16815;51.100;6.516;2023-07-13T14:27:18;3.92;;;1.48;;
29958;SDS011;16815;51.100;6.516;2023-07-13T14:29:44;8.40;;;2.15;;
29958;SDS011;16815;51.100;6.516;2023-07-13T14:32:11;4.63;;;1.70;;
29958;SDS011;16815;51.100;6.516;2023-07-13T14:34:37;2.72;;;1.55;;
29958;SDS011;16815;51.100;6.516;2023-07-13T14:37:03;8.80;;;1.90;;
29958;SDS011;16815;51.100;6.516;2023-07-13T14:39:30;7.85;;;1.63;;
29958;SDS011;16815;51.100;6.516;2023-07-13T14:41:56;2.97;;;1.40;;
29958;SDS011;16815;51.100;6.516;2023-07-13T14:44:27;6.88;;;1.52;;
29958;SDS011;16815;51.100;6.516;2023-07-13T14:46:54;3.03;;;1.60;;
29958;SDS011;16815;51.100;6.516;2023-07-13T14:49:28;2.65;;;1.50;;
29958;SDS011;16815;51.100;6.516;2023-07-13T14:51:55;2.42;;;1.40;;
29958;SDS011;16815;51.100;6.516;2023-07-13T14:54:22;7.35;;;1.70;;
29958;SDS011;16815;51.100;6.516;2023-07-13T14:56:49;5.93;;;1.80;;
29958;SDS011;16815;51.100;6.516;2023-07-13T14:59:15;3.42;;;1.60;;
29958;SDS011;16815;51.100;6.516;2023-07-13T15:01:43;3.92;;;1.60;;
29958;SDS011;16815;51.100;6.516;2023-07-13T15:04:09;4.43;;;1.75;;
29958;SDS011;16815;51.100;6.516;2023-07-13T15:06:57;4.28;;;1.90;;
29958;SDS011;16815;51.100;6.516;2023-07-13T15:09:22;2.92;;;1.80;;
29958;SDS011;16815;51.100;6.516;2023-07-13T15:11:51;3.75;;;1.75;;
29958;SDS011;16815;51.100;6.516;2023-07-13T15:14:16;3.33;;;1.77;;
29958;SDS011;16815;51.100;6.516;2023-07-13T15:16:42;4.93;;;1.80;;
29958;SDS011;16815;51.100;6.516;2023-07-13T15:19:09;3.47;;;1.73;;
29958;SDS011;16815;51.100;6.516;2023-07-13T15:21:36;4.30;;;1.80;;
29958;SDS011;16815;51.100;6.516;2023-07-13T15:24:02;3.45;;;1.95;;
29958;SDS011;16815;51.100;6.516;2023-07-13T15:26:28;2.50;;;1.63;;
29958;SDS011;16815;51.100;6.516;2023-07-13T15:28:55;3.97;;;1.90;;
29958;SDS011;16815;51.100;6.516;2023-07-13T15:33:46;3.70;;;1.70;;
29958;SDS011;16815;51.100;6.516;2023-07-13T15:36:14;3.83;;;1.30;;
29958;SDS011;16815;51.100;6.516;2023-07-13T15:38:40;2.30;;;1.63;;
29958;SDS011;16815;51.100;6.516;2023-07-13T15:41:15;1.60;;;1.20;;
29958;SDS011;16815;51.100;6.516;2023-07-13T15:43:41;2.67;;;1.43;;
29958;SDS011;16815;51.100;6.516;2023-07-13T15:46:07;3.08;;;1.40;;
29958;SDS011;16815;51.100;6.516;2023-07-13T15:48:33;2.80;;;1.40;;
29958;SDS011;16815;51.100;6.516;2023-07-13T15:51:03;4.10;;;1.63;;
29958;SDS011;16815;51.100;6.516;2023-07-13T15:53:30;3.17;;;1.37;;
29958;SDS011;16815;51.100;6.516;2023-07-13T15:55:56;2.00;;;1.53;;
29958;SDS011;16815;51.100;6.516;2023-07-13T15:58:23;2.90;;;1.50;;
29958;SDS011;16815;51.100;6.516;2023-07-13T16:00:51;2.53;;;1.30;;
29958;SDS011;16815;51.100;6.516;2023-07-13T16:03:18;1.52;;;1.30;;
29958;SDS011;16815;51.100;6.516;2023-07-13T16:05:44;2.03;;;1.20;;
29958;SDS011;16815;51.100;6.516;2023-07-13T16:08:16;1.80;;;1.30;;
29958;SDS011;16815;51.100;6.516;2023-07-13T16:10:45;1.98;;;1.15;;
29958;SDS011;16815;51.100;6.516;2023-07-13T16:13:15;2.17;;;1.27;;
29958;SDS011;16815;51.100;6.516;2023-07-13T16:15:41;1.73;;;1.30;;
29958;SDS011;16815;51.100;6.516;2023-07-13T16:18:09;1.93;;;1.33;;
29958;SDS011;16815;51.100;6.516;2023-07-13T16:20:36;2.73;;;1.57;;
29958;SDS011;16815;51.100;6.516;2023-07-13T16:23:02;3.83;;;1.40;;
29958;SDS011;16815;51.100;6.516;2023-07-13T16:25:28;1.97;;;1.20;;
29958;SDS011;16815;51.100;6.516;2023-07-13T16:27:55;3.37;;;1.30;;
29958;SDS011;16815;51.100;6.516;2023-07-13T16:30:25;1.77;;;1.30;;
29958;SDS011;16815;51.100;6.516;2023-07-13T16:32:51;2.93;;;1.73;;
29958;SDS011;16815;51.100;6.516;2023-07-13T16:35:21;2.53;;;1.10;;
29958;SDS011;16815;51.100;6.516;2023-07-13T16:37:48;1.75;;;1.20;;
29958;SDS011;16815;51.100;6.516;2023-07-13T16:40:18;1.83;;;1.20;;
29958;SDS011;16815;51.100;6.516;2023-07-13T16:42:48;1.98;;;1.30;;
29958;SDS011;16815;51.100;6.516;2023-07-13T16:45:14;4.78;;;1.40;;
29958;SDS011;16815;51.100;6.516;2023-07-13T16:47:40;5.90;;;1.43;;
29958;SDS011;16815;51.100;6.516;2023-07-13T16:50:13;7.25;;;1.80;;
29958;SDS011;16815;51.100;6.516;2023-07-13T16:52:39;11.07;;;1.42;;
29958;SDS011;16815;51.100;6.516;2023-07-13T16:55:08;13.23;;;1.70;;
29958;SDS011;16815;51.100;6.516;2023-07-13T16:57:34;1.88;;;1.17;;
29958;SDS011;16815;51.100;6.516;2023-07-13T17:00:04;1.92;;;1.13;;
29958;SDS011;16815;51.100;6.516;2023-07-13T17:02:37;1.40;;;1.27;;
29958;SDS011;16815;51.100;6.516;2023-07-13T17:05:04;1.65;;;1.17;;
29958;SDS011;16815;51.100;6.516;2023-07-13T17:07:31;1.42;;;1.30;;
29958;SDS011;16815;51.100;6.516;2023-07-13T17:09:57;3.03;;;1.10;;
29958;SDS011;16815;51.100;6.516;2023-07-13T17:12:24;2.95;;;1.05;;
29958;SDS011;16815;51.100;6.516;2023-07-13T17:14:50;2.25;;;1.27;;
29958;SDS011;16815;51.100;6.516;2023-07-13T17:17:17;1.67;;;1.30;;
29958;SDS011;16815;51.100;6.516;2023-07-13T17:19:43;2.20;;;1.60;;
29958;SDS011;16815;51.100;6.516;2023-07-13T17:22:11;2.22;;;1.40;;
29958;SDS011;16815;51.100;6.516;2023-07-13T17:24:42;1.35;;;1.17;;
29958;SDS011;16815;51.100;6.516;2023-07-13T17:27:09;3.70;;;1.35;;
29958;SDS011;16815;51.100;6.516;2023-07-13T17:29:35;3.03;;;0.93;;
29958;SDS011;16815;51.100;6.516;2023-07-13T17:32:02;1.67;;;1.30;;
29958;SDS011;16815;51.100;6.516;2023-07-13T17:34:31;1.27;;;1.13;;
29958;SDS011;16815;51.100;6.516;2023-07-13T17:36:58;2.70;;;1.10;;
29958;SDS011;16815;51.100;6.516;2023-07-13T17:39:24;1.52;;;1.10;;
29958;SDS011;16815;51.100;6.516;2023-07-13T17:41:51;1.13;;;1.02;;
29958;SDS011;16815;51.100;6.516;2023-07-13T17:44:17;1.30;;;1.20;;
29958;SDS011;16815;51.100;6.516;2023-07-13T17:46:45;1.98;;;1.15;;
29958;SDS011;16815;51.100;6.516;2023-07-13T17:49:22;1.75;;;1.30;;
29958;SDS011;16815;51.100;6.516;2023-07-13T17:51:56;3.58;;;1.67;;
29958;SDS011;16815;51.100;6.516;2023-07-13T17:54:23;1.02;;;0.93;;
29958;SDS011;16815;51.100;6.516;2023-07-13T17:56:50;1.30;;;1.20;;
29958;SDS011;16815;51.100;6.516;2023-07-13T17:59:16;3.22;;;1.17;;
29958;SDS011;16815;51.100;6.516;2023-07-13T18:01:42;2.65;;;1.25;;
29958;SDS011;16815;51.100;6.516;2023-07-13T18:04:09;1.98;;;1.25;;
29958;SDS011;16815;51.100;6.516;2023-07-13T18:06:37;4.07;;;1.30;;
29958;SDS011;16815;51.100;6.516;2023-07-13T18:09:16;1.40;;;1.27;;
29958;SDS011;16815;51.100;6.516;2023-07-13T18:11:42;1.73;;;1.05;;
29958;SDS011;16815;51.100;6.516;2023-07-13T18:14:08;1.58;;;1.25;;
29958;SDS011;16815;51.100;6.516;2023-07-13T18:16:35;1.40;;;1.17;;
29958;SDS011;16815;51.100;6.516;2023-07-13T18:19:02;1.90;;;1.40;;
29958;SDS011;16815;51.100;6.516;2023-07-13T18:21:29;2.55;;;1.50;;
29958;SDS011;16815;51.100;6.516;2023-07-13T18:23:55;2.58;;;1.33;;
29958;SDS011;16815;51.100;6.516;2023-07-13T18:26:23;2.33;;;1.20;;
29958;SDS011;16815;51.100;6.516;2023-07-13T18:28:49;4.40;;;1.30;;
29958;SDS011;16815;51.100;6.516;2023-07-13T18:31:16;7.20;;;1.40;;
29958;SDS011;16815;51.100;6.516;2023-07-13T18:33:43;2.97;;;1.75;;
29958;SDS011;16815;51.100;6.516;2023-07-13T18:36:11;4.03;;;1.52;;
29958;SDS011;16815;51.100;6.516;2023-07-13T18:38:39;3.25;;;1.48;;
29958;SDS011;16815;51.100;6.516;2023-07-13T18:41:05;2.60;;;1.65;;
29958;SDS011;16815;51.100;6.516;2023-07-13T18:43:33;1.48;;;1.13;;
29958;SDS011;16815;51.100;6.516;2023-07-13T18:46:00;3.97;;;1.55;;
29958;SDS011;16815;51.100;6.516;2023-07-13T18:48:29;2.28;;;1.40;;
29958;SDS011;16815;51.100;6.516;2023-07-13T18:50:57;3.38;;;1.40;;
29958;SDS011;16815;51.100;6.516;2023-07-13T18:53:23;4.32;;;1.70;;
29958;SDS011;16815;51.100;6.516;2023-07-13T18:55:48;1.85;;;1.40;;
29958;SDS011;16815;51.100;6.516;2023-07-13T18:58:15;2.80;;;1.77;;
29958;SDS011;16815;51.100;6.516;2023-07-13T19:00:44;3.30;;;1.45;;
29958;SDS011;16815;51.100;6.516;2023-07-13T19:03:14;1.42;;;1.33;;
29958;SDS011;16815;51.100;6.516;2023-07-13T19:05:40;2.13;;;1.27;;
29958;SDS011;16815;51.100;6.516;2023-07-13T19:08:12;2.55;;;1.30;;
29958;SDS011;16815;51.100;6.516;2023-07-13T19:10:40;3.47;;;1.90;;
29958;SDS011;16815;51.100;6.516;2023-07-13T19:13:08;3.70;;;1.50;;
29958;SDS011;16815;51.100;6.516;2023-07-13T19:15:35;2.53;;;1.50;;
29958;SDS011;16815;51.100;6.516;2023-07-13T19:18:05;2.08;;;1.27;;
29958;SDS011;16815;51.100;6.516;2023-07-13T19:20:36;2.78;;;1.70;;
29958;SDS011;16815;51.100;6.516;2023-07-13T19:23:03;2.50;;;1.67;;
29958;SDS011;16815;51.100;6.516;2023-07-13T19:25:31;2.97;;;1.52;;
29958;SDS011;16815;51.100;6.516;2023-07-13T19:28:33;4.07;;;1.60;;
29958;SDS011;16815;51.100;6.516;2023-07-13T19:30:50;3.07;;;1.77;;
29958;SDS011;16815;51.100;6.516;2023-07-13T19:33:16;4.77;;;2.07;;
29958;SDS011;16815;51.100;6.516;2023-07-13T19:35:42;3.77;;;2.00;;
29958;SDS011;16815;51.100;6.516;2023-07-13T19:38:19;3.60;;;1.77;;
29958;SDS011;16815;51.100;6.516;2023-07-13T19:40:46;3.57;;;1.80;;
29958;SDS011;16815;51.100;6.516;2023-07-13T19:43:13;3.67;;;1.80;;
29958;SDS011;16815;51.100;6.516;2023-07-13T19:45:39;2.47;;;1.80;;
29958;SDS011;16815;51.100;6.516;2023-07-13T19:48:05;3.70;;;1.70;;
29958;SDS011;16815;51.100;6.516;2023-07-13T19:50:32;2.13;;;1.60;;
29958;SDS011;16815;51.100;6.516;2023-07-13T19:52:58;3.33;;;1.70;;
29958;SDS011;16815;51.100;6.516;2023-07-13T19:55:25;3.07;;;1.60;;
29958;SDS011;16815;51.100;6.516;2023-07-13T19:57:52;2.90;;;1.67;;
29958;SDS011;16815;51.100;6.516;2023-07-13T20:00:19;2.90;;;1.73;;
29958;SDS011;16815;51.100;6.516;2023-07-13T20:02:47;3.47;;;1.70;;
29958;SDS011;16815;51.100;6.516;2023-07-13T20:05:14;2.83;;;1.50;;
29958;SDS011;16815;51.100;6.516;2023-07-13T20:07:41;2.53;;;1.57;;
29958;SDS011;16815;51.100;6.516;2023-07-13T20:10:50;2.50;;;1.90;;
29958;SDS011;16815;51.100;6.516;2023-07-13T20:12:58;1.97;;;1.57;;
29958;SDS011;16815;51.100;6.516;2023-07-13T20:15:25;2.80;;;1.73;;
29958;SDS011;16815;51.100;6.516;2023-07-13T20:17:53;3.07;;;1.67;;
29958;SDS011;16815;51.100;6.516;2023-07-13T20:20:32;2.07;;;1.60;;
29958;SDS011;16815;51.100;6.516;2023-07-13T20:22:59;2.70;;;1.50;;
29958;SDS011;16815;51.100;6.516;2023-07-13T20:25:32;2.27;;;1.40;;
29958;SDS011;16815;51.100;6.516;2023-07-13T20:27:58;4.77;;;1.80;;
29958;SDS011;16815;51.100;6.516;2023-07-13T20:30:31;2.80;;;1.90;;
29958;SDS011;16815;51.100;6.516;2023-07-13T20:33:01;4.77;;;2.33;;
29958;SDS011;16815;51.100;6.516;2023-07-13T20:35:29;5.93;;;2.07;;
29958;SDS011;16815;51.100;6.516;2023-07-13T20:37:55;2.97;;;2.03;;
29958;SDS011;16815;51.100;6.516;2023-07-13T20:40:22;3.47;;;2.03;;
29958;SDS011;16815;51.100;6.516;2023-07-13T20:42:49;5.20;;;2.20;;
29958;SDS011;16815;51.100;6.516;2023-07-13T20:45:15;3.30;;;1.70;;
29958;SDS011;16815;51.100;6.516;2023-07-13T20:47:41;4.07;;;1.93;;
29958;SDS011;16815;51.100;6.516;2023-07-13T20:52:40;10.60;;;2.47;;
29958;SDS011;16815;51.100;6.516;2023-07-13T20:55:11;5.67;;;2.10;;
29958;SDS011;16815;51.100;6.516;2023-07-13T20:57:38;4.60;;;2.13;;
29958;SDS011;16815;51.100;6.516;2023-07-13T21:00:04;6.03;;;1.73;;
29958;SDS011;16815;51.100;6.516;2023-07-13T21:02:31;6.73;;;2.10;;
29958;SDS011;16815;51.100;6.516;2023-07-13T21:05:15;5.27;;;2.20;;
29958;SDS011;16815;51.100;6.516;2023-07-13T21:07:42;5.40;;;2.10;;
29958;SDS011;16815;51.100;6.516;2023-07-13T21:10:19;7.20;;;2.17;;
29958;SDS011;16815;51.100;6.516;2023-07-13T21:12:46;8.37;;;2.30;;
29958;SDS011;16815;51.100;6.516;2023-07-13T21:15:17;7.20;;;2.13;;
29958;SDS011;16815;51.100;6.516;2023-07-13T21:17:44;5.37;;;2.20;;
29958;SDS011;16815;51.100;6.516;2023-07-13T21:20:15;6.20;;;2.27;;
29958;SDS011;16815;51.100;6.516;2023-07-13T21:22:41;9.57;;;2.80;;
29958;SDS011;16815;51.100;6.516;2023-07-13T21:25:18;6.27;;;2.17;;
29958;SDS011;16815;51.100;6.516;2023-07-13T21:27:44;6.20;;;2.40;;
29958;SDS011;16815;51.100;6.516;2023-07-13T21:30:14;5.70;;;2.43;;
29958;SDS011;16815;51.100;6.516;2023-07-13T21:32:40;10.20;;;2.73;;
29958;SDS011;16815;51.100;6.516;2023-07-13T21:35:10;3.97;;;2.10;;
29958;SDS011;16815;51.100;6.516;2023-07-13T21:37:41;8.60;;;2.20;;
29958;SDS011;16815;51.100;6.516;2023-07-13T21:40:08;4.43;;;2.23;;
29958;SDS011;16815;51.100;6.516;2023-07-13T21:42:38;9.90;;;2.83;;
29958;SDS011;16815;51.100;6.516;2023-07-13T21:45:08;9.47;;;2.60;;
29958;SDS011;16815;51.100;6.516;2023-07-13T21:47:39;11.63;;;3.63;;
29958;SDS011;16815;51.100;6.516;2023-07-13T21:50:05;10.77;;;2.50;;
29958;SDS011;16815;51.100;6.516;2023-07-13T21:52:31;11.47;;;2.80;;
29958;SDS011;16815;51.100;6.516;2023-07-13T21:54:57;9.73;;;3.73;;
29958;SDS011;16815;51.100;6.516;2023-07-13T21:57:23;9.27;;;3.00;;
29958;SDS011;16815;51.100;6.516;2023-07-13T21:59:53;13.43;;;3.10;;
29958;SDS011;16815;51.100;6.516;2023-07-13T22:02:19;14.83;;;2.80;;
29958;SDS011;16815;51.100;6.516;2023-07-13T22:04:45;8.30;;;3.17;;
29958;SDS011;16815;51.100;6.516;2023-07-13T22:07:11;11.47;;;3.70;;
29958;SDS011;16815;51.100;6.516;2023-07-13T22:09:37;7.43;;;3.23;;
29958;SDS011;16815;51.100;6.516;2023-07-13T22:12:03;8.73;;;2.63;;
29958;SDS011;16815;51.100;6.516;2023-07-13T22:14:32;6.67;;;2.83;;
29958;SDS011;16815;51.100;6.516;2023-07-13T22:16:58;9.73;;;2.93;;
29958;SDS011;16815;51.100;6.516;2023-07-13T22:19:26;12.97;;;3.07;;
29958;SDS011;16815;51.100;6.516;2023-07-13T22:21:53;10.27;;;2.30;;
29958;SDS011;16815;51.100;6.516;2023-07-13T22:24:19;8.87;;;2.60;;
29958;SDS011;16815;51.100;6.516;2023-07-13T22:26:46;10.37;;;2.60;;
29958;SDS011;16815;51.100;6.516;2023-07-13T22:29:13;13.10;;;2.57;;
29958;SDS011;16815;51.100;6.516;2023-07-13T22:31:39;7.63;;;2.43;;
29958;SDS011;16815;51.100;6.516;2023-07-13T22:34:08;10.37;;;3.13;;
29958;SDS011;16815;51.100;6.516;2023-07-13T22:36:34;12.70;;;2.80;;
29958;SDS011;16815;51.100;6.516;2023-07-13T22:39:00;13.87;;;3.27;;
29958;SDS011;16815;51.100;6.516;2023-07-13T22:41:29;14.97;;;3.90;;
29958;SDS011;16815;51.100;6.516;2023-07-13T22:43:55;11.40;;;2.43;;
29958;SDS011;16815;51.100;6.516;2023-07-13T22:48:58;8.87;;;2.57;;
29958;SDS011;16815;51.100;6.516;2023-07-13T22:51:25;9.40;;;2.50;;
29958;SDS011;16815;51.100;6.516;2023-07-13T22:53:52;7.87;;;2.80;;
29958;SDS011;16815;51.100;6.516;2023-07-13T22:56:21;6.57;;;2.20;;
29958;SDS011;16815;51.100;6.516;2023-07-13T22:58:47;9.37;;;2.30;;
29958;SDS011;16815;51.100;6.516;2023-07-13T23:01:15;7.83;;;2.23;;
29958;SDS011;16815;51.100;6.516;2023-07-13T23:03:44;5.13;;;2.50;;
29958;SDS011;16815;51.100;6.516;2023-07-13T23:06:12;5.33;;;2.40;;
29958;SDS011;16815;51.100;6.516;2023-07-13T23:08:40;5.47;;;2.27;;
29958;SDS011;16815;51.100;6.516;2023-07-13T23:11:07;4.77;;;2.27;;
29958;SDS011;16815;51.100;6.516;2023-07-13T23:13:34;7.93;;;2.60;;
29958;SDS011;16815;51.100;6.516;2023-07-13T23:16:00;4.23;;;2.00;;
29958;SDS011;16815;51.100;6.516;2023-07-13T23:18:26;4.37;;;2.03;;
29958;SDS011;16815;51.100;6.516;2023-07-13T23:20:52;4.63;;;2.33;;
29958;SDS011;16815;51.100;6.516;2023-07-13T23:23:18;7.67;;;2.23;;